sensor_id;sensor_type;location;lat;lon;timestamp;pressure;altitude;pressure_sealevel;temperature;humidity
11415;BME280;5763;42.714;23.244;2023-05-07T00:00:41;94807.16;;;13.21;69.86
11415;BME280;5763;42.714;23.244;2023-05-07T00:03:07;94798.63;;;13.19;70.20
11415;BME280;5763;42.714;23.244;2023-05-07T00:05:36;94792.19;;;13.22;69.86
11415;BME280;5763;42.714;23.244;2023-05-07T00:08:03;94692.19;;;12.46;70.22
11415;BME280;5763;42.714;23.244;2023-05-07T00:10:30;94757.63;;;12.89;70.11
11415;BME280;5763;42.714;23.244;2023-05-07T00:12:57;94715.03;;;12.52;70.13
11415;BME280;5763;42.714;23.244;2023-05-07T00:15:24;94797.31;;;12.97;69.65
11415;BME280;5763;42.714;23.244;2023-05-07T00:17:51;94791.97;;;12.93;69.86
11415;BME280;5763;42.714;23.244;2023-05-07T00:20:18;94784.19;;;12.83;69.66
11415;BME280;5763;42.714;23.244;2023-05-07T00:22:46;94740.66;;;12.49;69.94
11415;BME280;5763;42.714;23.244;2023-05-07T00:25:13;94800.38;;;12.81;70.18
11415;BME280;5763;42.714;23.244;2023-05-07T00:27:39;94782.84;;;12.78;70.02
11415;BME280;5763;42.714;23.244;2023-05-07T00:30:08;94790.75;;;12.85;69.85
11415;BME280;5763;42.714;23.244;2023-05-07T00:32:35;94796.53;;;12.87;69.94
11415;BME280;5763;42.714;23.244;2023-05-07T00:35:02;94691.31;;;12.22;69.81
11415;BME280;5763;42.714;23.244;2023-05-07T00:37:29;94781.91;;;12.81;69.95
11415;BME280;5763;42.714;23.244;2023-05-07T00:39:58;94680.38;;;11.86;70.19
11415;BME280;5763;42.714;23.244;2023-05-07T00:42:24;94750.56;;;12.46;70.04
11415;BME280;5763;42.714;23.244;2023-05-07T00:44:51;94728.19;;;12.30;70.33
11415;BME280;5763;42.714;23.244;2023-05-07T00:47:18;94779.69;;;12.53;70.81
11415;BME280;5763;42.714;23.244;2023-05-07T00:49:45;94744.34;;;12.37;70.95
11415;BME280;5763;42.714;23.244;2023-05-07T00:52:14;94754.84;;;12.47;70.80
11415;BME280;5763;42.714;23.244;2023-05-07T00:54:42;94768.53;;;12.56;71.27
11415;BME280;5763;42.714;23.244;2023-05-07T00:57:10;94800.41;;;12.63;71.13
11415;BME280;5763;42.714;23.244;2023-05-07T00:59:38;94728.66;;;12.19;70.68
11415;BME280;5763;42.714;23.244;2023-05-07T01:02:06;94769.63;;;12.50;70.64
11415;BME280;5763;42.714;23.244;2023-05-07T01:04:33;94803.94;;;12.54;71.08
11415;BME280;5763;42.714;23.244;2023-05-07T01:07:01;94696.69;;;11.71;70.72
11415;BME280;5763;42.714;23.244;2023-05-07T01:09:29;94689.66;;;11.88;70.49
11415;BME280;5763;42.714;23.244;2023-05-07T01:11:56;94826.06;;;12.51;70.46
11415;BME280;5763;42.714;23.244;2023-05-07T01:14:26;94791.59;;;12.50;70.46
11415;BME280;5763;42.714;23.244;2023-05-07T01:16:53;94794.19;;;12.44;71.04
11415;BME280;5763;42.714;23.244;2023-05-07T01:19:20;94784.56;;;12.49;70.34
11415;BME280;5763;42.714;23.244;2023-05-07T01:21:48;94805.44;;;12.55;70.24
11415;BME280;5763;42.714;23.244;2023-05-07T01:24:16;94735.53;;;12.15;70.64
11415;BME280;5763;42.714;23.244;2023-05-07T01:26:44;94799.50;;;12.48;70.90
11415;BME280;5763;42.714;23.244;2023-05-07T01:29:11;94734.63;;;12.09;70.97
11415;BME280;5763;42.714;23.244;2023-05-07T01:31:38;94715.88;;;11.71;70.93
11415;BME280;5763;42.714;23.244;2023-05-07T01:34:07;94646.66;;;11.22;70.94
11415;BME280;5763;42.714;23.244;2023-05-07T01:36:36;94655.13;;;11.64;70.70
11415;BME280;5763;42.714;23.244;2023-05-07T01:39:04;94774.97;;;12.44;70.56
11415;BME280;5763;42.714;23.244;2023-05-07T01:41:33;94716.47;;;12.02;70.72
11415;BME280;5763;42.714;23.244;2023-05-07T01:44:01;94785.63;;;12.51;70.16
11415;BME280;5763;42.714;23.244;2023-05-07T01:46:30;94737.50;;;12.14;70.82
11415;BME280;5763;42.714;23.244;2023-05-07T01:48:58;94815.53;;;12.31;71.28
11415;BME280;5763;42.714;23.244;2023-05-07T01:51:25;94785.03;;;12.29;70.94
11415;BME280;5763;42.714;23.244;2023-05-07T01:53:52;94746.03;;;11.80;70.64
11415;BME280;5763;42.714;23.244;2023-05-07T01:56:20;94768.13;;;12.13;70.90
11415;BME280;5763;42.714;23.244;2023-05-07T01:58:48;94816.13;;;12.08;71.56
11415;BME280;5763;42.714;23.244;2023-05-07T02:01:16;94766.31;;;12.19;71.43
11415;BME280;5763;42.714;23.244;2023-05-07T02:03:43;94747.88;;;11.92;71.53
11415;BME280;5763;42.714;23.244;2023-05-07T02:06:10;94645.78;;;11.43;71.30
11415;BME280;5763;42.714;23.244;2023-05-07T02:08:37;94772.56;;;12.28;70.78
11415;BME280;5763;42.714;23.244;2023-05-07T02:11:05;94763.25;;;12.17;71.13
11415;BME280;5763;42.714;23.244;2023-05-07T02:13:33;94739.94;;;12.12;70.95
11415;BME280;5763;42.714;23.244;2023-05-07T02:16:02;94639.06;;;11.17;71.20
11415;BME280;5763;42.714;23.244;2023-05-07T02:18:29;94762.50;;;12.16;71.51
11415;BME280;5763;42.714;23.244;2023-05-07T02:20:57;94641.84;;;11.35;71.45
11415;BME280;5763;42.714;23.244;2023-05-07T02:23:24;94753.66;;;12.12;71.60
11415;BME280;5763;42.714;23.244;2023-05-07T02:25:51;94746.50;;;11.97;71.53
11415;BME280;5763;42.714;23.244;2023-05-07T02:28:17;94730.06;;;11.88;72.17
11415;BME280;5763;42.714;23.244;2023-05-07T02:30:44;94760.97;;;12.06;71.79
11415;BME280;5763;42.714;23.244;2023-05-07T02:33:12;94741.31;;;11.99;71.92
11415;BME280;5763;42.714;23.244;2023-05-07T02:35:39;94721.66;;;11.82;72.48
11415;BME280;5763;42.714;23.244;2023-05-07T02:38:06;94771.63;;;12.13;72.27
11415;BME280;5763;42.714;23.244;2023-05-07T02:40:35;94721.19;;;11.75;72.70
11415;BME280;5763;42.714;23.244;2023-05-07T02:43:04;94763.41;;;12.04;72.92
11415;BME280;5763;42.714;23.244;2023-05-07T02:45:31;94698.47;;;11.56;72.85
11415;BME280;5763;42.714;23.244;2023-05-07T02:47:58;94750.31;;;11.90;73.23
11415;BME280;5763;42.714;23.244;2023-05-07T02:50:26;94702.63;;;11.70;72.79
11415;BME280;5763;42.714;23.244;2023-05-07T02:52:53;94763.25;;;12.08;72.89
11415;BME280;5763;42.714;23.244;2023-05-07T02:55:19;94749.69;;;11.95;73.06
11415;BME280;5763;42.714;23.244;2023-05-07T02:57:47;94766.59;;;12.12;72.99
11415;BME280;5763;42.714;23.244;2023-05-07T03:00:15;94708.53;;;11.59;73.11
11415;BME280;5763;42.714;23.244;2023-05-07T03:02:43;94784.13;;;11.96;73.22
11415;BME280;5763;42.714;23.244;2023-05-07T03:05:10;94777.13;;;12.04;73.28
11415;BME280;5763;42.714;23.244;2023-05-07T03:07:38;94718.28;;;11.69;73.35
11415;BME280;5763;42.714;23.244;2023-05-07T03:10:06;94765.69;;;11.97;73.72
11415;BME280;5763;42.714;23.244;2023-05-07T03:12:34;94710.19;;;11.57;73.32
11415;BME280;5763;42.714;23.244;2023-05-07T03:15:01;94770.56;;;12.02;73.56
11415;BME280;5763;42.714;23.244;2023-05-07T03:17:27;94727.59;;;11.63;73.49
11415;BME280;5763;42.714;23.244;2023-05-07T03:19:54;94654.69;;;10.99;73.33
11415;BME280;5763;42.714;23.244;2023-05-07T03:22:21;94701.06;;;11.42;72.06
11415;BME280;5763;42.714;23.244;2023-05-07T03:24:49;94758.22;;;11.70;71.83
11415;BME280;5763;42.714;23.244;2023-05-07T03:27:16;94785.78;;;11.85;71.77
11415;BME280;5763;42.714;23.244;2023-05-07T03:29:43;94761.19;;;11.54;72.12
11415;BME280;5763;42.714;23.244;2023-05-07T03:32:10;94789.41;;;11.64;72.12
11415;BME280;5763;42.714;23.244;2023-05-07T03:34:36;94723.53;;;11.28;72.71
11415;BME280;5763;42.714;23.244;2023-05-07T03:37:03;94749.16;;;11.43;72.52
11415;BME280;5763;42.714;23.244;2023-05-07T03:39:30;94732.53;;;11.37;73.29
11415;BME280;5763;42.714;23.244;2023-05-07T03:41:58;94720.47;;;11.17;73.31
11415;BME280;5763;42.714;23.244;2023-05-07T03:44:26;94807.28;;;11.86;73.07
11415;BME280;5763;42.714;23.244;2023-05-07T03:46:53;94782.13;;;11.79;72.40
11415;BME280;5763;42.714;23.244;2023-05-07T03:49:20;94802.41;;;11.90;73.49
11415;BME280;5763;42.714;23.244;2023-05-07T03:51:47;94805.75;;;11.94;73.53
11415;BME280;5763;42.714;23.244;2023-05-07T03:54:14;94811.84;;;11.89;73.71
11415;BME280;5763;42.714;23.244;2023-05-07T03:56:41;94794.19;;;11.90;73.72
11415;BME280;5763;42.714;23.244;2023-05-07T03:59:09;94758.50;;;11.72;73.51
11415;BME280;5763;42.714;23.244;2023-05-07T04:01:36;94710.31;;;11.35;73.74
11415;BME280;5763;42.714;23.244;2023-05-07T04:04:02;94753.34;;;11.65;73.40
11415;BME280;5763;42.714;23.244;2023-05-07T04:06:30;94799.50;;;12.03;73.98
11415;BME280;5763;42.714;23.244;2023-05-07T04:08:57;94819.19;;;12.19;74.29
11415;BME280;5763;42.714;23.244;2023-05-07T04:11:24;94826.50;;;12.40;73.54
11415;BME280;5763;42.714;23.244;2023-05-07T04:13:51;94764.75;;;11.82;73.06
11415;BME280;5763;42.714;23.244;2023-05-07T04:16:19;94713.09;;;11.44;73.27
11415;BME280;5763;42.714;23.244;2023-05-07T04:18:46;94693.13;;;11.44;73.14
11415;BME280;5763;42.714;23.244;2023-05-07T04:21:16;94844.19;;;12.48;72.91
11415;BME280;5763;42.714;23.244;2023-05-07T04:23:43;94817.66;;;12.18;72.41
11415;BME280;5763;42.714;23.244;2023-05-07T04:26:09;94682.47;;;11.46;72.36
11415;BME280;5763;42.714;23.244;2023-05-07T04:28:36;94842.38;;;12.36;72.81
11415;BME280;5763;42.714;23.244;2023-05-07T04:31:03;94861.13;;;12.29;72.61
11415;BME280;5763;42.714;23.244;2023-05-07T04:33:32;94826.03;;;12.33;72.74
11415;BME280;5763;42.714;23.244;2023-05-07T04:36:01;94824.97;;;12.39;72.66
11415;BME280;5763;42.714;23.244;2023-05-07T04:38:29;94860.50;;;12.70;72.41
11415;BME280;5763;42.714;23.244;2023-05-07T04:40:56;94856.09;;;12.63;72.09
11415;BME280;5763;42.714;23.244;2023-05-07T04:43:24;94860.50;;;12.52;72.56
11415;BME280;5763;42.714;23.244;2023-05-07T04:45:51;94852.88;;;12.38;73.59
11415;BME280;5763;42.714;23.244;2023-05-07T04:48:18;94857.63;;;12.37;73.79
11415;BME280;5763;42.714;23.244;2023-05-07T04:50:49;94846.47;;;12.32;73.83
11415;BME280;5763;42.714;23.244;2023-05-07T04:53:18;94833.50;;;12.05;74.24
11415;BME280;5763;42.714;23.244;2023-05-07T04:55:45;94855.63;;;12.47;74.12
11415;BME280;5763;42.714;23.244;2023-05-07T04:58:12;94816.13;;;12.08;74.01
11415;BME280;5763;42.714;23.244;2023-05-07T05:00:39;94681.28;;;11.47;73.77
11415;BME280;5763;42.714;23.244;2023-05-07T05:03:06;94806.06;;;12.41;73.62
11415;BME280;5763;42.714;23.244;2023-05-07T05:05:33;94873.16;;;12.85;73.65
11415;BME280;5763;42.714;23.244;2023-05-07T05:08:02;94750.13;;;12.03;72.98
11415;BME280;5763;42.714;23.244;2023-05-07T05:10:29;94869.19;;;13.04;72.79
11415;BME280;5763;42.714;23.244;2023-05-07T05:12:56;94798.28;;;12.67;72.52
11415;BME280;5763;42.714;23.244;2023-05-07T05:15:23;94771.44;;;12.44;72.06
11415;BME280;5763;42.714;23.244;2023-05-07T05:17:50;94863.94;;;13.24;71.86
11415;BME280;5763;42.714;23.244;2023-05-07T05:20:17;94869.13;;;13.31;71.48
11415;BME280;5763;42.714;23.244;2023-05-07T05:22:43;94793.94;;;12.93;71.12
11415;BME280;5763;42.714;23.244;2023-05-07T05:25:12;94775.53;;;12.66;71.12
11415;BME280;5763;42.714;23.244;2023-05-07T05:27:39;94779.78;;;12.85;71.31
11415;BME280;5763;42.714;23.244;2023-05-07T05:30:07;94830.50;;;13.26;70.97
11415;BME280;5763;42.714;23.244;2023-05-07T05:32:34;94862.34;;;13.50;71.11
11415;BME280;5763;42.714;23.244;2023-05-07T05:35:00;94713.06;;;12.43;71.21
11415;BME280;5763;42.714;23.244;2023-05-07T05:37:27;94823.91;;;13.32;70.85
11415;BME280;5763;42.714;23.244;2023-05-07T05:39:55;94769.41;;;12.98;70.35
11415;BME280;5763;42.714;23.244;2023-05-07T05:42:23;94709.44;;;12.79;70.27
11415;BME280;5763;42.714;23.244;2023-05-07T05:44:50;94850.63;;;13.73;70.35
11415;BME280;5763;42.714;23.244;2023-05-07T05:47:17;94755.59;;;13.16;69.86
11415;BME280;5763;42.714;23.244;2023-05-07T05:49:44;94789.88;;;13.30;69.79
11415;BME280;5763;42.714;23.244;2023-05-07T05:52:12;94877.50;;;14.02;70.08
11415;BME280;5763;42.714;23.244;2023-05-07T05:54:39;94828.94;;;13.75;70.12
11415;BME280;5763;42.714;23.244;2023-05-07T05:57:06;94734.81;;;13.15;69.96
11415;BME280;5763;42.714;23.244;2023-05-07T05:59:34;94849.72;;;14.00;69.90
11415;BME280;5763;42.714;23.244;2023-05-07T06:02:02;94867.78;;;14.24;69.82
11415;BME280;5763;42.714;23.244;2023-05-07T06:04:29;94859.75;;;14.35;69.63
11415;BME280;5763;42.714;23.244;2023-05-07T06:06:56;94803.44;;;13.89;69.85
11415;BME280;5763;42.714;23.244;2023-05-07T06:09:23;94821.56;;;14.05;69.63
11415;BME280;5763;42.714;23.244;2023-05-07T06:11:50;94777.94;;;13.89;70.13
11415;BME280;5763;42.714;23.244;2023-05-07T06:14:17;94870.00;;;14.58;69.99
11415;BME280;5763;42.714;23.244;2023-05-07T06:16:45;94870.63;;;14.53;70.40
11415;BME280;5763;42.714;23.244;2023-05-07T06:19:12;94860.25;;;14.86;70.01
11415;BME280;5763;42.714;23.244;2023-05-07T06:21:39;94868.63;;;14.92;69.54
11415;BME280;5763;42.714;23.244;2023-05-07T06:24:09;94839.22;;;14.60;69.44
11415;BME280;5763;42.714;23.244;2023-05-07T06:26:37;94844.03;;;14.88;69.23
11415;BME280;5763;42.714;23.244;2023-05-07T06:29:06;94851.63;;;15.08;68.44
11415;BME280;5763;42.714;23.244;2023-05-07T06:31:33;94856.28;;;15.02;69.04
11415;BME280;5763;42.714;23.244;2023-05-07T06:34:02;94796.97;;;14.92;68.45
11415;BME280;5763;42.714;23.244;2023-05-07T06:36:29;94850.22;;;15.41;68.05
11415;BME280;5763;42.714;23.244;2023-05-07T06:38:56;94839.56;;;15.49;67.94
11415;BME280;5763;42.714;23.244;2023-05-07T06:41:23;94699.69;;;14.71;66.53
11415;BME280;5763;42.714;23.244;2023-05-07T06:43:51;94821.41;;;15.57;66.65
11415;BME280;5763;42.714;23.244;2023-05-07T06:46:18;94795.28;;;15.38;66.56
11415;BME280;5763;42.714;23.244;2023-05-07T06:48:45;94834.47;;;15.76;66.35
11415;BME280;5763;42.714;23.244;2023-05-07T06:51:13;94715.84;;;14.93;66.11
11415;BME280;5763;42.714;23.244;2023-05-07T06:53:40;94715.59;;;15.25;65.43
11415;BME280;5763;42.714;23.244;2023-05-07T06:56:07;94742.78;;;15.47;64.85
11415;BME280;5763;42.714;23.244;2023-05-07T06:58:34;94816.25;;;15.99;64.56
11415;BME280;5763;42.714;23.244;2023-05-07T07:01:01;94784.84;;;15.96;64.15
11415;BME280;5763;42.714;23.244;2023-05-07T07:03:27;94713.63;;;15.60;63.81
11415;BME280;5763;42.714;23.244;2023-05-07T07:05:54;94776.22;;;16.09;64.00
11415;BME280;5763;42.714;23.244;2023-05-07T07:08:23;94816.94;;;16.34;62.89
11415;BME280;5763;42.714;23.244;2023-05-07T07:10:50;94834.63;;;16.62;62.69
11415;BME280;5763;42.714;23.244;2023-05-07T07:13:16;94834.28;;;16.74;62.82
11415;BME280;5763;42.714;23.244;2023-05-07T07:15:44;94815.66;;;16.49;63.18
11415;BME280;5763;42.714;23.244;2023-05-07T07:18:13;94774.50;;;16.52;62.57
11415;BME280;5763;42.714;23.244;2023-05-07T07:20:40;94783.16;;;16.64;61.03
11415;BME280;5763;42.714;23.244;2023-05-07T07:23:06;94840.13;;;17.07;61.16
11415;BME280;5763;42.714;23.244;2023-05-07T07:25:35;94769.03;;;16.83;59.79
11415;BME280;5763;42.714;23.244;2023-05-07T07:28:02;94840.09;;;17.27;59.80
11415;BME280;5763;42.714;23.244;2023-05-07T07:30:28;94824.19;;;17.22;60.38
11415;BME280;5763;42.714;23.244;2023-05-07T07:32:55;94832.50;;;17.22;60.83
11415;BME280;5763;42.714;23.244;2023-05-07T07:35:28;94833.47;;;17.45;59.94
11415;BME280;5763;42.714;23.244;2023-05-07T07:37:55;94809.00;;;17.38;59.92
11415;BME280;5763;42.714;23.244;2023-05-07T07:40:22;94836.66;;;17.63;59.89
11415;BME280;5763;42.714;23.244;2023-05-07T07:42:52;94785.59;;;17.33;59.94
11415;BME280;5763;42.714;23.244;2023-05-07T07:45:19;94699.75;;;16.91;59.62
11415;BME280;5763;42.714;23.244;2023-05-07T07:47:46;94796.66;;;17.65;59.49
11415;BME280;5763;42.714;23.244;2023-05-07T07:50:13;94783.00;;;17.56;59.39
11415;BME280;5763;42.714;23.244;2023-05-07T07:52:40;94798.31;;;17.51;57.23
11415;BME280;5763;42.714;23.244;2023-05-07T07:55:07;94843.72;;;18.01;56.41
11415;BME280;5763;42.714;23.244;2023-05-07T07:57:34;94849.34;;;18.17;56.69
11415;BME280;5763;42.714;23.244;2023-05-07T08:00:04;94758.66;;;17.65;55.85
11415;BME280;5763;42.714;23.244;2023-05-07T08:02:32;94785.69;;;17.81;56.37
11415;BME280;5763;42.714;23.244;2023-05-07T08:05:00;94789.16;;;18.13;56.11
11415;BME280;5763;42.714;23.244;2023-05-07T08:07:26;94722.78;;;17.82;57.15
11415;BME280;5763;42.714;23.244;2023-05-07T08:09:53;94718.50;;;17.86;56.36
11415;BME280;5763;42.714;23.244;2023-05-07T08:12:20;94824.69;;;18.62;56.51
11415;BME280;5763;42.714;23.244;2023-05-07T08:14:47;94783.56;;;18.55;56.07
11415;BME280;5763;42.714;23.244;2023-05-07T08:17:15;94832.38;;;19.05;57.45
11415;BME280;5763;42.714;23.244;2023-05-07T08:19:42;94816.94;;;18.88;56.18
11415;BME280;5763;42.714;23.244;2023-05-07T08:22:09;94764.19;;;18.66;55.84
11415;BME280;5763;42.714;23.244;2023-05-07T08:24:36;94769.53;;;18.91;52.74
11415;BME280;5763;42.714;23.244;2023-05-07T08:27:03;94841.78;;;19.30;51.91
11415;BME280;5763;42.714;23.244;2023-05-07T08:29:30;94745.09;;;18.95;51.49
11415;BME280;5763;42.714;23.244;2023-05-07T08:31:57;94763.81;;;19.22;51.13
11415;BME280;5763;42.714;23.244;2023-05-07T08:34:26;94685.06;;;18.70;51.27
11415;BME280;5763;42.714;23.244;2023-05-07T08:36:52;94736.53;;;19.21;50.74
11415;BME280;5763;42.714;23.244;2023-05-07T08:39:19;94752.22;;;19.51;49.58
11415;BME280;5763;42.714;23.244;2023-05-07T08:41:48;94828.38;;;20.22;48.24
11415;BME280;5763;42.714;23.244;2023-05-07T08:44:20;94749.63;;;19.75;47.29
11415;BME280;5763;42.714;23.244;2023-05-07T08:46:50;94693.16;;;19.56;46.60
11415;BME280;5763;42.714;23.244;2023-05-07T08:49:19;94819.22;;;20.43;47.24
11415;BME280;5763;42.714;23.244;2023-05-07T08:51:48;94789.38;;;20.44;46.49
11415;BME280;5763;42.714;23.244;2023-05-07T08:54:16;94741.22;;;20.19;46.86
11415;BME280;5763;42.714;23.244;2023-05-07T08:56:43;94792.72;;;20.94;47.03
11415;BME280;5763;42.714;23.244;2023-05-07T08:59:10;94800.22;;;21.10;47.80
11415;BME280;5763;42.714;23.244;2023-05-07T09:01:37;94787.47;;;21.25;48.05
11415;BME280;5763;42.714;23.244;2023-05-07T09:04:04;94786.44;;;21.28;48.02
11415;BME280;5763;42.714;23.244;2023-05-07T09:06:32;94782.75;;;21.44;45.86
11415;BME280;5763;42.714;23.244;2023-05-07T09:09:01;94790.75;;;21.59;46.62
11415;BME280;5763;42.714;23.244;2023-05-07T09:11:30;94766.72;;;21.56;47.13
11415;BME280;5763;42.714;23.244;2023-05-07T09:14:00;94783.03;;;21.76;47.30
11415;BME280;5763;42.714;23.244;2023-05-07T09:16:29;94732.34;;;21.48;45.52
11415;BME280;5763;42.714;23.244;2023-05-07T09:18:58;94775.75;;;21.97;44.49
11415;BME280;5763;42.714;23.244;2023-05-07T09:21:25;94755.47;;;21.96;43.60
11415;BME280;5763;42.714;23.244;2023-05-07T09:23:53;94745.66;;;22.14;43.67
11415;BME280;5763;42.714;23.244;2023-05-07T09:26:22;94777.38;;;22.59;43.05
11415;BME280;5763;42.714;23.244;2023-05-07T09:28:49;94761.69;;;22.74;40.25
11415;BME280;5763;42.714;23.244;2023-05-07T09:31:17;94731.00;;;22.74;39.87
11415;BME280;5763;42.714;23.244;2023-05-07T09:33:44;94709.03;;;22.84;40.30
11415;BME280;5763;42.714;23.244;2023-05-07T09:36:11;94730.13;;;23.16;40.46
11415;BME280;5763;42.714;23.244;2023-05-07T09:38:38;94672.56;;;22.82;40.15
11415;BME280;5763;42.714;23.244;2023-05-07T09:41:08;94788.69;;;23.59;38.28
11415;BME280;5763;42.714;23.244;2023-05-07T09:43:37;94689.28;;;23.00;38.65
11415;BME280;5763;42.714;23.244;2023-05-07T09:46:09;94758.44;;;23.26;38.65
11415;BME280;5763;42.714;23.244;2023-05-07T09:48:40;94745.31;;;23.21;37.84
11415;BME280;5763;42.714;23.244;2023-05-07T09:51:16;94755.06;;;23.33;39.00
11415;BME280;5763;42.714;23.244;2023-05-07T09:53:45;94729.28;;;23.40;38.32
11415;BME280;5763;42.714;23.244;2023-05-07T09:56:13;94602.84;;;22.76;37.61
11415;BME280;5763;42.714;23.244;2023-05-07T09:58:43;94750.63;;;24.00;35.40
11415;BME280;5763;42.714;23.244;2023-05-07T10:01:16;94608.72;;;23.23;34.91
11415;BME280;5763;42.714;23.244;2023-05-07T10:03:47;94677.41;;;23.89;35.15
11415;BME280;5763;42.714;23.244;2023-05-07T10:06:25;94659.19;;;23.82;35.13
11415;BME280;5763;42.714;23.244;2023-05-07T10:08:52;94765.16;;;24.38;35.77
11415;BME280;5763;42.714;23.244;2023-05-07T10:11:21;94720.41;;;24.12;33.69
11415;BME280;5763;42.714;23.244;2023-05-07T10:13:50;94737.31;;;24.32;31.77
11415;BME280;5763;42.714;23.244;2023-05-07T10:16:18;94741.50;;;24.13;30.91
11415;BME280;5763;42.714;23.244;2023-05-07T10:18:46;94639.44;;;23.36;29.94
11415;BME280;5763;42.714;23.244;2023-05-07T10:21:17;94731.75;;;23.88;29.90
11415;BME280;5763;42.714;23.244;2023-05-07T10:23:45;94652.28;;;23.70;30.05
11415;BME280;5763;42.714;23.244;2023-05-07T10:26:13;94719.63;;;24.50;29.80
11415;BME280;5763;42.714;23.244;2023-05-07T10:28:44;94720.69;;;24.86;29.21
11415;BME280;5763;42.714;23.244;2023-05-07T10:31:40;94685.53;;;24.52;30.08
11415;BME280;5763;42.714;23.244;2023-05-07T10:34:12;94578.34;;;23.71;29.75
11415;BME280;5763;42.714;23.244;2023-05-07T10:36:40;94638.13;;;24.20;29.40
11415;BME280;5763;42.714;23.244;2023-05-07T10:39:08;94730.22;;;25.04;29.78
11415;BME280;5763;42.714;23.244;2023-05-07T10:41:35;94622.66;;;24.53;29.10
11415;BME280;5763;42.714;23.244;2023-05-07T10:44:07;94699.59;;;25.39;27.95
11415;BME280;5763;42.714;23.244;2023-05-07T10:46:35;94704.38;;;25.52;27.92
11415;BME280;5763;42.714;23.244;2023-05-07T10:49:11;94708.50;;;25.51;29.02
11415;BME280;5763;42.714;23.244;2023-05-07T10:51:38;94698.13;;;25.87;30.86
11415;BME280;5763;42.714;23.244;2023-05-07T10:54:23;94711.66;;;26.16;29.81
11415;BME280;5763;42.714;23.244;2023-05-07T10:56:50;94710.50;;;26.40;29.79
11415;BME280;5763;42.714;23.244;2023-05-07T10:59:38;94699.81;;;26.74;28.04
11415;BME280;5763;42.714;23.244;2023-05-07T11:02:10;94691.06;;;26.85;28.76
11415;BME280;5763;42.714;23.244;2023-05-07T11:04:39;94643.59;;;26.59;28.28
11415;BME280;5763;42.714;23.244;2023-05-07T11:07:24;94684.81;;;26.64;27.72
11415;BME280;5763;42.714;23.244;2023-05-07T11:12:50;94706.59;;;27.36;27.01
11415;BME280;5763;42.714;23.244;2023-05-07T11:15:42;94653.75;;;27.27;26.89
11415;BME280;5763;42.714;23.244;2023-05-07T11:18:13;94704.38;;;27.57;27.38
11415;BME280;5763;42.714;23.244;2023-05-07T11:21:04;94591.44;;;26.78;27.64
11415;BME280;5763;42.714;23.244;2023-05-07T11:26:46;94688.28;;;27.73;25.51
11415;BME280;5763;42.714;23.244;2023-05-07T11:29:15;94711.56;;;27.81;26.47
11415;BME280;5763;42.714;23.244;2023-05-07T11:31:42;94644.78;;;27.89;26.17
11415;BME280;5763;42.714;23.244;2023-05-07T11:34:10;94681.66;;;28.30;26.37
11415;BME280;5763;42.714;23.244;2023-05-07T11:36:41;94698.94;;;28.27;26.69
11415;BME280;5763;42.714;23.244;2023-05-07T11:39:24;94651.31;;;28.14;26.03
11415;BME280;5763;42.714;23.244;2023-05-07T11:41:51;94569.41;;;27.65;25.73
11415;BME280;5763;42.714;23.244;2023-05-07T11:44:18;94631.22;;;28.17;25.08
11415;BME280;5763;42.714;23.244;2023-05-07T11:46:45;94610.97;;;28.11;24.34
11415;BME280;5763;42.714;23.244;2023-05-07T11:49:13;94666.47;;;28.26;24.11
11415;BME280;5763;42.714;23.244;2023-05-07T11:51:40;94653.00;;;28.02;23.69
11415;BME280;5763;42.714;23.244;2023-05-07T11:54:08;94620.56;;;27.78;25.58
11415;BME280;5763;42.714;23.244;2023-05-07T11:56:37;94572.38;;;27.59;23.95
11415;BME280;5763;42.714;23.244;2023-05-07T11:59:04;94646.81;;;28.11;25.66
11415;BME280;5763;42.714;23.244;2023-05-07T12:01:31;94665.31;;;28.36;25.55
11415;BME280;5763;42.714;23.244;2023-05-07T12:03:58;94667.56;;;28.38;25.69
11415;BME280;5763;42.714;23.244;2023-05-07T12:06:31;94575.78;;;27.58;25.98
11415;BME280;5763;42.714;23.244;2023-05-07T12:08:58;94528.94;;;27.38;25.16
11415;BME280;5763;42.714;23.244;2023-05-07T12:11:25;94654.78;;;28.52;24.32
11415;BME280;5763;42.714;23.244;2023-05-07T12:13:54;94635.06;;;28.52;22.65
11415;BME280;5763;42.714;23.244;2023-05-07T12:16:22;94597.56;;;28.34;23.99
11415;BME280;5763;42.714;23.244;2023-05-07T12:18:50;94525.13;;;27.80;24.72
11415;BME280;5763;42.714;23.244;2023-05-07T12:21:20;94622.91;;;28.42;24.12
11415;BME280;5763;42.714;23.244;2023-05-07T12:23:49;94641.50;;;28.45;24.51
11415;BME280;5763;42.714;23.244;2023-05-07T12:26:16;94544.63;;;27.78;24.76
11415;BME280;5763;42.714;23.244;2023-05-07T12:28:42;94618.03;;;28.42;24.50
11415;BME280;5763;42.714;23.244;2023-05-07T12:31:10;94621.63;;;28.75;22.98
11415;BME280;5763;42.714;23.244;2023-05-07T12:33:37;94620.50;;;28.78;22.70
11415;BME280;5763;42.714;23.244;2023-05-07T12:36:06;94647.22;;;29.09;23.04
11415;BME280;5763;42.714;23.244;2023-05-07T12:38:38;94500.34;;;28.33;23.07
11415;BME280;5763;42.714;23.244;2023-05-07T12:41:09;94578.03;;;28.83;23.13
11415;BME280;5763;42.714;23.244;2023-05-07T12:43:38;94631.69;;;29.00;22.89
11415;BME280;5763;42.714;23.244;2023-05-07T12:46:07;94594.53;;;28.87;24.41
11415;BME280;5763;42.714;23.244;2023-05-07T12:48:36;94627.31;;;29.07;23.66
11415;BME280;5763;42.714;23.244;2023-05-07T12:51:05;94630.16;;;29.07;24.07
11415;BME280;5763;42.714;23.244;2023-05-07T12:53:39;94592.25;;;28.93;23.67
11415;BME280;5763;42.714;23.244;2023-05-07T12:56:09;94593.72;;;28.94;23.92
11415;BME280;5763;42.714;23.244;2023-05-07T12:58:36;94468.00;;;28.10;24.64
11415;BME280;5763;42.714;23.244;2023-05-07T13:01:05;94588.13;;;28.86;24.70
11415;BME280;5763;42.714;23.244;2023-05-07T13:03:36;94560.00;;;28.79;23.20
11415;BME280;5763;42.714;23.244;2023-05-07T13:06:05;94614.78;;;29.49;22.64
11415;BME280;5763;42.714;23.244;2023-05-07T13:08:34;94540.56;;;29.22;22.28
11415;BME280;5763;42.714;23.244;2023-05-07T13:11:02;94577.56;;;29.26;21.81